Time;durP1;ratioP1;P1;durP2;ratioP2;P2;SDS_P1;SDS_P2;PMS_P1;PMS_P2;Temp;Humidity;BMP_temperature;BMP_pressure;BME280_temperature;BME280_humidity;BME280_pressure;Samples;Min_cycle;Max_cycle;Signal;HPM_P1;HPM_P2
2023/06/10 00:01:47;;;;;;;25.98;20.70;;;;;;;;;;4953100;29;20231;-80
2023/06/10 00:04:14;;;;;;;23.48;20.42;;;;;;;;;;4953171;29;20219;-80
2023/06/10 00:06:41;;;;;;;24.05;19.95;;;;;;;;;;4952964;29;20199;-80
2023/06/10 00:09:10;;;;;;;23.40;19.30;;;;;;;;;;4952605;29;20235;-80
2023/06/10 00:11:38;;;;;;;23.67;19.55;;;;;;;;;;4952981;28;20290;-80
2023/06/10 00:14:06;;;;;;;22.17;19.25;;;;;;;;;;4953473;29;20262;-80
2023/06/10 00:16:33;;;;;;;23.83;19.98;;;;;;;;;;4952992;28;20628;-80
2023/06/10 00:19:03;;;;;;;28.02;20.30;;;;;;;;;;4952830;29;20234;-80
2023/06/10 00:21:36;;;;;;;21.90;19.55;;;;;;;;;;4953293;29;20260;-81
2023/06/10 00:24:05;;;;;;;23.95;18.52;;;;;;;;;;4952780;28;20229;-80
2023/06/10 00:26:32;;;;;;;22.05;19.20;;;;;;;;;;4952619;28;20231;-80
2023/06/10 00:29:00;;;;;;;22.77;19.13;;;;;;;;;;4952949;28;20225;-79
2023/06/10 00:31:27;;;;;;;23.15;19.20;;;;;;;;;;4952831;28;20203;-81
2023/06/10 00:33:54;;;;;;;24.77;19.70;;;;;;;;;;4952820;28;20408;-80
2023/06/10 00:36:23;;;;;;;25.85;19.33;;;;;;;;;;4953069;29;20303;-80
2023/06/10 00:38:50;;;;;;;23.25;18.75;;;;;;;;;;4952824;29;20290;-80
2023/06/10 00:41:17;;;;;;;22.98;18.65;;;;;;;;;;4952896;28;20203;-80
2023/06/10 00:43:45;;;;;;;20.95;18.58;;;;;;;;;;4952902;28;20199;-81
2023/06/10 00:46:13;;;;;;;23.80;19.73;;;;;;;;;;4952663;28;20235;-81
2023/06/10 00:48:40;;;;;;;27.10;19.55;;;;;;;;;;4952695;28;20582;-81
2023/06/10 00:51:09;;;;;;;29.58;20.23;;;;;;;;;;4952587;28;20251;-80
2023/06/10 00:53:38;;;;;;;26.05;21.40;;;;;;;;;;4952505;28;20238;-81
2023/06/10 00:56:05;;;;;;;29.00;19.58;;;;;;;;;;4952807;28;20301;-80
2023/06/10 00:58:33;;;;;;;25.02;19.20;;;;;;;;;;4953302;29;20290;-80
2023/06/10 01:01:00;;;;;;;26.42;20.95;;;;;;;;;;4952881;28;20306;-81
2023/06/10 01:03:27;;;;;;;27.70;20.67;;;;;;;;;;4952383;28;20195;-79
2023/06/10 01:05:59;;;;;;;23.23;19.48;;;;;;;;;;4952289;28;20231;-79
2023/06/10 01:08:30;;;;;;;25.77;20.40;;;;;;;;;;4952406;28;20203;-79
2023/06/10 01:11:01;;;;;;;27.65;20.42;;;;;;;;;;4952636;28;20202;-80
2023/06/10 01:13:29;;;;;;;27.38;20.23;;;;;;;;;;4949067;28;20258;-78
2023/06/10 01:15:57;;;;;;;26.08;19.63;;;;;;;;;;4945579;29;20235;-80
2023/06/10 01:18:25;;;;;;;28.17;20.02;;;;;;;;;;4933037;29;20283;-79
2023/06/10 01:20:52;;;;;;;27.83;20.85;;;;;;;;;;4935633;29;20204;-81
2023/06/10 01:23:21;;;;;;;31.98;20.92;;;;;;;;;;4936691;29;20206;-80
2023/06/10 01:25:52;;;;;;;27.85;20.20;;;;;;;;;;4936708;29;20326;-80
2023/06/10 01:28:23;;;;;;;24.67;20.52;;;;;;;;;;4936619;29;20601;-80
2023/06/10 01:30:52;;;;;;;30.05;21.48;;;;;;;;;;4936566;29;20223;-80
2023/06/10 01:33:23;;;;;;;28.10;20.98;;;;;;;;;;4936147;29;20203;-80
2023/06/10 01:35:52;;;;;;;29.88;21.73;;;;;;;;;;4936630;29;20204;-80
2023/06/10 01:38:24;;;;;;;25.17;20.45;;;;;;;;;;4936774;29;20204;-81
2023/06/10 01:40:52;;;;;;;25.55;20.83;;;;;;;;;;4936476;29;20247;-80
2023/06/10 01:43:19;;;;;;;27.92;20.80;;;;;;;;;;4936555;29;20298;-81
2023/06/10 01:45:46;;;;;;;28.13;20.90;;;;;;;;;;4936439;29;20235;-80
2023/06/10 01:48:13;;;;;;;24.40;20.50;;;;;;;;;;4936098;29;20227;-80
2023/06/10 01:50:40;;;;;;;23.38;20.42;;;;;;;;;;4936259;29;20204;-80
2023/06/10 01:53:08;;;;;;;23.80;20.15;;;;;;;;;;4936372;29;20235;-81
2023/06/10 01:55:36;;;;;;;26.02;21.45;;;;;;;;;;4935915;29;20303;-81
2023/06/10 01:58:03;;;;;;;25.65;20.48;;;;;;;;;;4936353;29;20231;-80
2023/06/10 02:00:31;;;;;;;24.85;20.00;;;;;;;;;;4935586;29;20238;-79
2023/06/10 02:02:58;;;;;;;22.88;18.70;;;;;;;;;;4935655;29;20214;-80
2023/06/10 02:05:25;;;;;;;28.52;21.00;;;;;;;;;;4935758;29;20318;-80
2023/06/10 02:07:52;;;;;;;26.17;20.50;;;;;;;;;;4935842;29;20298;-80
2023/06/10 02:10:19;;;;;;;26.90;20.08;;;;;;;;;;4935582;29;20298;-80
2023/06/10 02:12:48;;;;;;;25.60;18.95;;;;;;;;;;4936021;29;20262;-80
2023/06/10 02:15:15;;;;;;;22.95;19.42;;;;;;;;;;4945841;29;20207;-80
2023/06/10 02:17:42;;;;;;;23.95;19.42;;;;;;;;;;4954880;28;20273;-80
2023/06/10 02:20:10;;;;;;;28.13;20.00;;;;;;;;;;4954776;29;20209;-81
2023/06/10 02:22:38;;;;;;;23.70;19.77;;;;;;;;;;4954899;28;20206;-80
2023/06/10 02:25:05;;;;;;;30.77;19.50;;;;;;;;;;4954890;28;20294;-80
2023/06/10 02:27:32;;;;;;;27.95;20.58;;;;;;;;;;4954712;29;20298;-81
2023/06/10 02:30:01;;;;;;;25.23;20.15;;;;;;;;;;4954600;29;20290;-80
2023/06/10 02:32:29;;;;;;;27.63;20.05;;;;;;;;;;4954275;28;20661;-81
2023/06/10 02:34:57;;;;;;;24.73;20.05;;;;;;;;;;4954702;28;20218;-80
2023/06/10 02:37:24;;;;;;;29.50;21.00;;;;;;;;;;4954473;28;20628;-80
2023/06/10 02:39:51;;;;;;;27.77;21.42;;;;;;;;;;4954868;28;20591;-81
2023/06/10 02:42:19;;;;;;;27.13;20.83;;;;;;;;;;4954570;28;20203;-81
2023/06/10 02:44:46;;;;;;;26.52;20.90;;;;;;;;;;4953957;29;20294;-80
2023/06/10 02:47:14;;;;;;;27.17;21.88;;;;;;;;;;4954018;29;20266;-80
2023/06/10 02:49:42;;;;;;;24.80;20.95;;;;;;;;;;4954934;28;20203;-80
2023/06/10 02:52:11;;;;;;;30.17;22.00;;;;;;;;;;4954142;28;20286;-81
2023/06/10 02:54:38;;;;;;;28.40;21.63;;;;;;;;;;4954244;29;20203;-80
2023/06/10 02:57:05;;;;;;;31.27;21.42;;;;;;;;;;4954487;29;20294;-80
2023/06/10 02:59:33;;;;;;;30.17;22.38;;;;;;;;;;4953753;28;20203;-80
2023/06/10 03:02:01;;;;;;;28.65;21.65;;;;;;;;;;4954299;29;20230;-81
2023/06/10 03:04:30;;;;;;;27.58;21.58;;;;;;;;;;4954161;28;20195;-81
2023/06/10 03:06:57;;;;;;;26.92;20.70;;;;;;;;;;4954087;28;20234;-82
2023/06/10 03:09:25;;;;;;;29.33;21.45;;;;;;;;;;4954186;28;20290;-80
2023/06/10 03:11:52;;;;;;;29.98;20.77;;;;;;;;;;4972859;28;20260;-79
2023/06/10 03:14:19;;;;;;;22.88;19.38;;;;;;;;;;4970449;28;20234;-81
2023/06/10 03:16:46;;;;;;;28.95;21.48;;;;;;;;;;4953858;29;20231;-81
2023/06/10 03:19:13;;;;;;;33.38;21.50;;;;;;;;;;4953929;29;20298;-81
2023/06/10 03:21:45;;;;;;;28.83;20.55;;;;;;;;;;4953631;28;20301;-80
2023/06/10 03:24:12;;;;;;;29.65;21.13;;;;;;;;;;4953841;29;20242;-81
2023/06/10 03:26:39;;;;;;;27.60;21.23;;;;;;;;;;4953726;29;20262;-80
2023/06/10 03:29:07;;;;;;;24.30;20.73;;;;;;;;;;4953563;28;20233;-81
2023/06/10 03:31:35;;;;;;;28.95;21.40;;;;;;;;;;4953426;28;21135;-81
2023/06/10 03:34:02;;;;;;;27.50;20.63;;;;;;;;;;4953790;28;20665;-80
2023/06/10 03:36:30;;;;;;;26.45;19.90;;;;;;;;;;4953640;29;20226;-81
2023/06/10 03:38:58;;;;;;;27.05;20.90;;;;;;;;;;4953536;28;20226;-81
2023/06/10 03:41:26;;;;;;;28.05;20.52;;;;;;;;;;4953206;29;20234;-80
2023/06/10 03:43:53;;;;;;;28.70;21.10;;;;;;;;;;4952627;28;20211;-81
2023/06/10 03:46:20;;;;;;;27.02;20.63;;;;;;;;;;4953191;28;20325;-81
2023/06/10 03:48:48;;;;;;;28.02;21.25;;;;;;;;;;4953261;28;20286;-80
2023/06/10 03:51:15;;;;;;;25.70;19.65;;;;;;;;;;4953707;29;20663;-80
2023/06/10 03:53:42;;;;;;;31.52;21.05;;;;;;;;;;4953587;29;20203;-80
2023/06/10 03:56:11;;;;;;;27.88;19.95;;;;;;;;;;4953411;29;20199;-80
2023/06/10 03:58:38;;;;;;;24.25;20.50;;;;;;;;;;4953121;29;20246;-81
2023/06/10 04:01:07;;;;;;;26.90;20.52;;;;;;;;;;4953582;28;20294;-81
2023/06/10 04:03:34;;;;;;;25.60;21.05;;;;;;;;;;4952984;28;20200;-81
2023/06/10 04:06:01;;;;;;;24.65;19.92;;;;;;;;;;4953116;28;20313;-80
2023/06/10 04:08:29;;;;;;;25.92;20.48;;;;;;;;;;4953349;28;20219;-80
2023/06/10 04:10:56;;;;;;;25.42;20.00;;;;;;;;;;4952308;28;20203;-81
2023/06/10 04:13:25;;;;;;;25.58;19.92;;;;;;;;;;4953553;29;20234;-79
2023/06/10 04:15:52;;;;;;;26.95;20.15;;;;;;;;;;4952865;28;20327;-79
2023/06/10 04:18:19;;;;;;;25.88;20.65;;;;;;;;;;4952934;28;20235;-80
2023/06/10 04:20:46;;;;;;;26.23;19.90;;;;;;;;;;4953080;29;20286;-80
2023/06/10 04:23:13;;;;;;;29.85;20.67;;;;;;;;;;4952985;29;20768;-81
2023/06/10 04:25:41;;;;;;;26.77;19.65;;;;;;;;;;4952346;28;20643;-80
2023/06/10 04:28:08;;;;;;;29.75;20.20;;;;;;;;;;4953031;29;20226;-79
2023/06/10 04:30:36;;;;;;;26.63;20.55;;;;;;;;;;4953111;28;20203;-80
2023/06/10 04:33:05;;;;;;;24.08;20.60;;;;;;;;;;4952863;28;20744;-80
2023/06/10 04:35:32;;;;;;;26.38;19.92;;;;;;;;;;4953057;29;20634;-80
2023/06/10 04:38:00;;;;;;;29.02;21.27;;;;;;;;;;4952690;28;20207;-80
2023/06/10 04:40:27;;;;;;;28.17;20.95;;;;;;;;;;4952868;28;20231;-80
2023/06/10 04:42:54;;;;;;;28.20;20.27;;;;;;;;;;4952543;29;20235;-80
2023/06/10 04:45:21;;;;;;;28.85;21.08;;;;;;;;;;4952969;29;20203;-80
2023/06/10 04:47:50;;;;;;;34.95;21.70;;;;;;;;;;4952718;29;20253;-80
2023/06/10 04:50:17;;;;;;;26.92;21.58;;;;;;;;;;4952917;28;20299;-80
2023/06/10 04:52:44;;;;;;;29.40;21.23;;;;;;;;;;4952656;29;20294;-80
2023/06/10 04:55:11;;;;;;;27.90;19.77;;;;;;;;;;4954761;28;20294;-80
2023/06/10 04:57:38;;;;;;;27.25;20.45;;;;;;;;;;4956535;29;20294;-79
2023/06/10 05:00:06;;;;;;;27.92;20.42;;;;;;;;;;4956417;28;20737;-80
2023/06/10 05:02:33;;;;;;;27.35;20.13;;;;;;;;;;4956311;28;20286;-80
2023/06/10 05:05:02;;;;;;;24.63;20.52;;;;;;;;;;4956430;29;20222;-81
2023/06/10 05:07:29;;;;;;;26.45;20.25;;;;;;;;;;4963939;28;20234;-78
2023/06/10 05:09:56;;;;;;;26.80;20.85;;;;;;;;;;4975019;28;20289;-81
2023/06/10 05:12:24;;;;;;;27.13;20.27;;;;;;;;;;4975292;28;20676;-81
2023/06/10 05:14:51;;;;;;;26.75;19.52;;;;;;;;;;4968456;28;20996;-79
2023/06/10 05:17:18;;;;;;;23.65;19.70;;;;;;;;;;4956153;28;20346;-81
2023/06/10 05:19:47;;;;;;;25.15;20.10;;;;;;;;;;4956109;28;20290;-80
2023/06/10 05:22:17;;;;;;;26.20;21.20;;;;;;;;;;4956177;29;20207;-80
2023/06/10 05:24:45;;;;;;;28.27;20.63;;;;;;;;;;4955662;28;20262;-80
2023/06/10 05:27:12;;;;;;;24.88;20.80;;;;;;;;;;4955825;28;20238;-81
2023/06/10 05:29:39;;;;;;;24.25;20.85;;;;;;;;;;4955747;28;20282;-80
2023/06/10 05:32:08;;;;;;;26.63;20.98;;;;;;;;;;4955717;28;20294;-80
2023/06/10 05:34:35;;;;;;;28.77;22.23;;;;;;;;;;4956202;28;20230;-80
2023/06/10 05:37:02;;;;;;;36.03;23.95;;;;;;;;;;4955683;29;20235;-80
2023/06/10 05:39:31;;;;;;;29.05;22.73;;;;;;;;;;4955198;28;20303;-80
2023/06/10 05:42:01;;;;;;;29.33;22.70;;;;;;;;;;4955278;28;20250;-80
2023/06/10 05:44:28;;;;;;;34.72;24.25;;;;;;;;;;4955582;29;20199;-79
2023/06/10 05:46:55;;;;;;;32.60;23.67;;;;;;;;;;4955719;28;20325;-80
2023/06/10 05:49:22;;;;;;;33.55;24.27;;;;;;;;;;4955408;29;20290;-80
2023/06/10 05:51:49;;;;;;;30.95;23.77;;;;;;;;;;4955275;28;20656;-80
2023/06/10 05:54:17;;;;;;;33.90;24.20;;;;;;;;;;4955083;29;20222;-80
2023/06/10 05:56:45;;;;;;;33.40;24.83;;;;;;;;;;4955233;28;20298;-81
2023/06/10 05:59:12;;;;;;;36.65;26.00;;;;;;;;;;4955787;29;20226;-81
2023/06/10 06:01:40;;;;;;;35.17;25.15;;;;;;;;;;4955174;29;20246;-79
2023/06/10 06:04:07;;;;;;;37.15;25.88;;;;;;;;;;4954808;28;20231;-80
2023/06/10 06:06:34;;;;;;;32.95;25.27;;;;;;;;;;4954171;28;20314;-80
2023/06/10 06:09:01;;;;;;;35.30;25.38;;;;;;;;;;4954909;28;20203;-80
2023/06/10 06:11:28;;;;;;;31.50;25.75;;;;;;;;;;4954996;29;20227;-80
2023/06/10 06:13:57;;;;;;;35.75;25.52;;;;;;;;;;4955035;28;20402;-80
2023/06/10 06:16:24;;;;;;;32.85;24.65;;;;;;;;;;4955028;29;20247;-80
2023/06/10 06:18:52;;;;;;;34.88;26.13;;;;;;;;;;4954810;29;20207;-80
2023/06/10 06:21:19;;;;;;;35.55;25.63;;;;;;;;;;4954214;28;20677;-80
2023/06/10 06:23:46;;;;;;;36.67;25.65;;;;;;;;;;4954947;28;20282;-79
2023/06/10 06:26:13;;;;;;;33.70;25.65;;;;;;;;;;4954644;28;20195;-80
2023/06/10 06:28:40;;;;;;;32.15;24.67;;;;;;;;;;4954737;29;20200;-80
2023/06/10 06:31:09;;;;;;;35.00;24.35;;;;;;;;;;4953450;29;20207;-80
2023/06/10 06:33:37;;;;;;;33.20;24.52;;;;;;;;;;4954844;28;20756;-79
2023/06/10 06:36:04;;;;;;;33.88;25.15;;;;;;;;;;4944810;29;20298;-79
2023/06/10 06:38:31;;;;;;;32.03;23.65;;;;;;;;;;4949664;29;20593;-80
2023/06/10 06:41:02;;;;;;;31.85;25.00;;;;;;;;;;4950247;29;20222;-79
2023/06/10 06:43:30;;;;;;;32.10;23.77;;;;;;;;;;4951889;29;20265;-79
2023/06/10 06:45:57;;;;;;;35.30;25.30;;;;;;;;;;4953366;29;20676;-79
2023/06/10 06:48:26;;;;;;;33.50;23.63;;;;;;;;;;4950450;28;20238;-80
2023/06/10 06:50:53;;;;;;;31.23;23.40;;;;;;;;;;4958274;28;20960;-79
2023/06/10 06:53:20;;;;;;;34.05;24.50;;;;;;;;;;4952283;29;20290;-80
2023/06/10 06:55:47;;;;;;;29.80;25.08;;;;;;;;;;4952509;29;20304;-80
2023/06/10 06:58:15;;;;;;;32.13;24.52;;;;;;;;;;4952026;29;20242;-79
2023/06/10 07:00:42;;;;;;;29.85;23.90;;;;;;;;;;4952418;28;20309;-79
2023/06/10 07:03:09;;;;;;;31.27;24.25;;;;;;;;;;4952852;28;20207;-79
2023/06/10 07:05:38;;;;;;;31.63;24.60;;;;;;;;;;4950984;28;20737;-79
2023/06/10 07:08:05;;;;;;;29.13;24.20;;;;;;;;;;4952587;29;20235;-80
2023/06/10 07:10:33;;;;;;;29.30;22.85;;;;;;;;;;4952696;28;20294;-80
2023/06/10 07:13:00;;;;;;;28.77;22.40;;;;;;;;;;4951735;29;20209;-80
2023/06/10 07:15:27;;;;;;;28.42;22.63;;;;;;;;;;4951764;28;20290;-79
2023/06/10 07:17:55;;;;;;;29.33;23.02;;;;;;;;;;4951475;28;20245;-79
2023/06/10 07:20:22;;;;;;;28.90;24.17;;;;;;;;;;4951352;29;20250;-79
2023/06/10 07:22:51;;;;;;;26.50;23.15;;;;;;;;;;4952127;28;20290;-79
2023/06/10 07:25:18;;;;;;;32.25;22.83;;;;;;;;;;4951998;29;20303;-79
2023/06/10 07:27:45;;;;;;;27.10;23.48;;;;;;;;;;4946460;29;21144;-79
2023/06/10 07:30:13;;;;;;;28.30;23.48;;;;;;;;;;4950572;29;20238;-79
2023/06/10 07:32:40;;;;;;;29.77;23.25;;;;;;;;;;4952700;29;20238;-79
2023/06/10 07:35:09;;;;;;;28.52;24.23;;;;;;;;;;4953476;29;20297;-79
2023/06/10 07:37:37;;;;;;;25.42;22.65;;;;;;;;;;4953331;29;20286;-77
2023/06/10 07:40:06;;;;;;;27.42;23.67;;;;;;;;;;4953296;29;20203;-79
2023/06/10 07:42:33;;;;;;;25.55;22.10;;;;;;;;;;4952897;29;20254;-79
2023/06/10 07:45:01;;;;;;;30.23;23.25;;;;;;;;;;4954083;29;20301;-78
2023/06/10 07:47:28;;;;;;;28.75;22.40;;;;;;;;;;4953565;29;20231;-78
2023/06/10 07:49:55;;;;;;;28.73;23.17;;;;;;;;;;4952805;28;20282;-79
2023/06/10 07:52:22;;;;;;;24.80;22.10;;;;;;;;;;4953236;29;20290;-77
2023/06/10 07:54:50;;;;;;;25.92;22.48;;;;;;;;;;4953480;28;20632;-79
2023/06/10 07:57:18;;;;;;;28.00;21.92;;;;;;;;;;4972302;28;20202;-81
2023/06/10 07:59:46;;;;;;;25.48;22.27;;;;;;;;;;4973738;28;20282;-80
2023/06/10 08:02:13;;;;;;;24.88;22.30;;;;;;;;;;4972739;28;20229;-83
2023/06/10 08:04:40;;;;;;;26.05;22.73;;;;;;;;;;4972523;28;20202;-79
2023/06/10 08:07:07;;;;;;;24.55;21.88;;;;;;;;;;4972454;28;20313;-80
2023/06/10 08:09:35;;;;;;;27.73;24.30;;;;;;;;;;4956590;28;20238;-79
2023/06/10 08:12:02;;;;;;;28.40;23.45;;;;;;;;;;4944264;28;20207;-78
2023/06/10 08:14:30;;;;;;;23.92;21.50;;;;;;;;;;4945270;29;20254;-79
2023/06/10 08:16:58;;;;;;;25.45;22.63;;;;;;;;;;4950908;28;20294;-79
2023/06/10 08:19:25;;;;;;;24.92;22.33;;;;;;;;;;4943146;28;20291;-79
2023/06/10 08:21:52;;;;;;;25.05;22.42;;;;;;;;;;4952079;29;20262;-82
2023/06/10 08:24:19;;;;;;;25.08;21.10;;;;;;;;;;4607159;28;10000478;-79
2023/06/10 08:26:47;;;;;;;22.60;20.00;;;;;;;;;;4947794;28;20199;-79
2023/06/10 08:29:14;;;;;;;23.15;20.73;;;;;;;;;;4950393;28;20290;-79
2023/06/10 08:31:44;;;;;;;22.95;20.40;;;;;;;;;;4952703;29;20302;-79
2023/06/10 08:34:11;;;;;;;22.10;19.70;;;;;;;;;;4951804;28;20207;-78
2023/06/10 08:36:39;;;;;;;22.55;19.95;;;;;;;;;;4949856;29;20314;-79
2023/06/10 08:39:07;;;;;;;21.42;19.30;;;;;;;;;;4956898;29;20203;-79
2023/06/10 08:41:36;;;;;;;20.95;18.58;;;;;;;;;;4956638;29;20214;-79
2023/06/10 08:44:09;;;;;;;28.05;25.08;;;;;;;;;;4956949;28;20207;-79
2023/06/10 08:46:37;;;;;;;26.30;23.52;;;;;;;;;;4956160;29;20199;-78
2023/06/10 08:49:08;;;;;;;23.35;20.85;;;;;;;;;;4956680;28;20326;-79
2023/06/10 08:51:37;;;;;;;23.52;21.33;;;;;;;;;;4957235;28;20199;-79
2023/06/10 08:54:06;;;;;;;23.30;21.08;;;;;;;;;;4958239;28;20210;-79
2023/06/10 08:56:36;;;;;;;22.45;19.60;;;;;;;;;;4960969;28;20282;-78
2023/06/10 08:59:03;;;;;;;22.30;19.33;;;;;;;;;;4957885;28;20646;-77
2023/06/10 09:01:31;;;;;;;22.40;20.13;;;;;;;;;;4950627;28;20204;-78
2023/06/10 09:03:59;;;;;;;22.50;20.23;;;;;;;;;;4947224;29;20231;-79
2023/06/10 09:06:28;;;;;;;23.13;20.70;;;;;;;;;;4947885;28;20278;-80
2023/06/10 09:08:55;;;;;;;21.23;19.13;;;;;;;;;;4950483;28;20716;-79
2023/06/10 09:11:22;;;;;;;22.50;20.25;;;;;;;;;;4972459;28;20281;-78
2023/06/10 09:13:49;;;;;;;21.42;19.33;;;;;;;;;;4975371;28;20226;-78
2023/06/10 09:16:17;;;;;;;22.48;20.27;;;;;;;;;;4956333;28;20356;-79
2023/06/10 09:18:44;;;;;;;22.85;20.48;;;;;;;;;;4955581;29;20234;-79
2023/06/10 09:21:11;;;;;;;21.63;19.63;;;;;;;;;;4969755;28;20288;-79
2023/06/10 09:23:40;;;;;;;22.05;19.77;;;;;;;;;;4975597;28;20237;-80
2023/06/10 09:26:10;;;;;;;21.88;19.73;;;;;;;;;;4974957;28;20202;-78
2023/06/10 09:28:39;;;;;;;21.83;19.70;;;;;;;;;;4975116;28;20234;-79
2023/06/10 09:31:07;;;;;;;23.98;21.35;;;;;;;;;;4959035;28;20199;-77
2023/06/10 09:33:34;;;;;;;24.08;21.20;;;;;;;;;;4969962;28;20209;-79
2023/06/10 09:36:03;;;;;;;23.08;20.83;;;;;;;;;;4974850;28;20291;-79
2023/06/10 09:38:31;;;;;;;22.20;19.90;;;;;;;;;;4967515;28;20261;-79
2023/06/10 09:41:01;;;;;;;23.23;20.83;;;;;;;;;;4971555;28;20298;-79
2023/06/10 09:43:41;;;;;;;23.77;21.23;;;;;;;;;;4955230;28;20199;-80
2023/06/10 09:46:08;;;;;;;23.50;21.23;;;;;;;;;;4954577;28;20203;-79
2023/06/10 09:48:37;;;;;;;24.23;21.50;;;;;;;;;;4946990;28;20270;-79
2023/06/10 09:51:10;;;;;;;23.67;21.27;;;;;;;;;;4948719;29;20206;-78
2023/06/10 09:53:37;;;;;;;21.73;19.60;;;;;;;;;;4945388;28;20603;-79
2023/06/10 09:56:06;;;;;;;22.05;19.88;;;;;;;;;;4944522;28;20290;-78
2023/06/10 09:58:37;;;;;;;22.02;19.92;;;;;;;;;;4951974;28;20223;-79
2023/06/10 10:01:07;;;;;;;22.25;19.85;;;;;;;;;;4962235;28;20227;-78
2023/06/10 10:03:34;;;;;;;23.40;20.95;;;;;;;;;;4940079;29;20217;-78
2023/06/10 10:06:02;;;;;;;24.30;21.77;;;;;;;;;;4955575;28;20298;-78
2023/06/10 10:08:29;;;;;;;22.58;20.27;;;;;;;;;;4939589;29;20721;-79
2023/06/10 10:10:58;;;;;;;20.45;18.42;;;;;;;;;;4935713;29;20260;-77
2023/06/10 10:13:28;;;;;;;21.02;18.95;;;;;;;;;;4943783;29;20244;-78
2023/06/10 10:15:56;;;;;;;21.65;19.50;;;;;;;;;;4953341;28;20725;-77
2023/06/10 10:18:28;;;;;;;21.27;19.23;;;;;;;;;;4945698;28;20299;-78
2023/06/10 10:20:56;;;;;;;21.20;19.15;;;;;;;;;;4951854;28;20215;-77
2023/06/10 10:23:31;;;;;;;19.60;17.52;;;;;;;;;;4953820;28;20239;-78
2023/06/10 10:25:59;;;;;;;17.10;15.43;;;;;;;;;;4954664;29;20214;-77
2023/06/10 10:28:31;;;;;;;18.02;16.35;;;;;;;;;;4958452;29;20253;-80
2023/06/10 10:31:01;;;;;;;12.40;11.27;;;;;;;;;;4961308;28;20203;-76
2023/06/10 10:33:33;;;;;;;15.32;13.95;;;;;;;;;;4954388;28;20310;-78
2023/06/10 10:36:00;;;;;;;14.85;13.52;;;;;;;;;;4954438;29;20286;-77
2023/06/10 10:38:27;;;;;;;12.85;11.75;;;;;;;;;;4954054;29;20266;-78
2023/06/10 10:40:55;;;;;;;14.20;13.07;;;;;;;;;;4935170;29;20255;-77
2023/06/10 10:43:23;;;;;;;13.98;12.68;;;;;;;;;;4934415;29;20661;-77
2023/06/10 10:46:00;;;;;;;13.55;12.25;;;;;;;;;;4938463;29;20645;-77
2023/06/10 10:48:29;;;;;;;10.63;9.73;;;;;;;;;;4953983;29;20274;-77
2023/06/10 10:50:59;;;;;;;8.55;7.78;;;;;;;;;;4954283;28;20650;-77
2023/06/10 10:53:26;;;;;;;10.07;9.20;;;;;;;;;;4953979;28;20755;-77
2023/06/10 10:56:00;;;;;;;9.70;8.90;;;;;;;;;;4952929;29;20294;-78
2023/06/10 10:58:29;;;;;;;9.10;8.20;;;;;;;;;;4952982;28;20227;-80
2023/06/10 11:00:56;;;;;;;8.25;7.43;;;;;;;;;;4952963;29;20203;-79
2023/06/10 11:03:29;;;;;;;6.88;6.03;;;;;;;;;;4954004;28;20299;-80
2023/06/10 11:05:58;;;;;;;5.78;5.30;;;;;;;;;;4951633;28;20203;-80
2023/06/10 11:08:40;;;;;;;5.50;5.00;;;;;;;;;;4954141;28;20226;-80
2023/06/10 11:11:19;;;;;;;5.35;4.85;;;;;;;;;;4953560;28;20743;-80
2023/06/10 11:13:59;;;;;;;6.22;5.72;;;;;;;;;;4958768;28;20289;-79
2023/06/10 11:16:29;;;;;;;6.63;5.97;;;;;;;;;;4944630;29;20231;-82
2023/06/10 11:18:58;;;;;;;7.35;6.75;;;;;;;;;;4946245;29;20192;-81
2023/06/10 11:21:26;;;;;;;6.38;5.82;;;;;;;;;;4963055;28;20668;-82
2023/06/10 11:23:53;;;;;;;6.38;5.82;;;;;;;;;;4966998;28;20200;-82
2023/06/10 11:26:26;;;;;;;8.93;7.88;;;;;;;;;;4956530;28;20203;-81
2023/06/10 11:29:04;;;;;;;9.23;8.35;;;;;;;;;;4951371;28;20235;-81
2023/06/10 11:31:31;;;;;;;9.00;8.20;;;;;;;;;;4953594;28;20637;-82
2023/06/10 11:34:01;;;;;;;8.82;8.13;;;;;;;;;;4952703;29;20219;-81
2023/06/10 11:36:29;;;;;;;7.95;7.15;;;;;;;;;;4950250;28;20623;-82
2023/06/10 11:38:57;;;;;;;7.90;7.20;;;;;;;;;;4947394;28;20294;-81
2023/06/10 11:41:26;;;;;;;9.82;8.88;;;;;;;;;;4952689;28;20629;-80
2023/06/10 11:43:55;;;;;;;9.55;8.65;;;;;;;;;;4945392;29;20582;-81
2023/06/10 11:46:23;;;;;;;9.05;7.57;;;;;;;;;;4936950;28;20202;-81
2023/06/10 11:48:50;;;;;;;8.10;7.28;;;;;;;;;;4942823;28;20246;-81
2023/06/10 11:51:19;;;;;;;7.75;7.03;;;;;;;;;;4951502;29;20588;-81
2023/06/10 11:53:46;;;;;;;8.45;7.30;;;;;;;;;;4953171;28;20195;-80
2023/06/10 11:56:14;;;;;;;8.27;7.47;;;;;;;;;;4952691;29;20199;-80
2023/06/10 11:58:44;;;;;;;7.85;7.05;;;;;;;;;;4947735;29;20653;-83
2023/06/10 12:01:11;;;;;;;7.07;6.47;;;;;;;;;;4943571;28;20290;-82
2023/06/10 12:03:39;;;;;;;7.32;6.63;;;;;;;;;;4951796;28;20238;-83
2023/06/10 12:06:07;;;;;;;7.68;6.95;;;;;;;;;;4948301;28;20676;-82
2023/06/10 12:08:42;;;;;;;7.85;7.15;;;;;;;;;;4952032;28;20233;-79
2023/06/10 12:11:10;;;;;;;6.70;6.10;;;;;;;;;;4948421;28;20289;-80
2023/06/10 12:13:37;;;;;;;6.55;5.95;;;;;;;;;;4950921;29;20274;-79
2023/06/10 12:16:08;;;;;;;7.00;6.28;;;;;;;;;;4949555;29;20238;-81
2023/06/10 12:18:35;;;;;;;7.05;6.20;;;;;;;;;;4952010;28;20242;-81
2023/06/10 12:21:03;;;;;;;6.22;5.72;;;;;;;;;;4948169;28;20654;-81
2023/06/10 12:23:30;;;;;;;5.72;4.93;;;;;;;;;;4945907;28;20207;-80
2023/06/10 12:26:01;;;;;;;6.68;6.07;;;;;;;;;;4949201;29;20282;-82
2023/06/10 12:28:29;;;;;;;5.75;5.25;;;;;;;;;;4945204;28;20314;-80
2023/06/10 12:31:08;;;;;;;5.88;5.38;;;;;;;;;;4949303;28;20210;-80
2023/06/10 12:33:35;;;;;;;6.50;5.90;;;;;;;;;;4940131;29;20199;-80
2023/06/10 12:36:02;;;;;;;6.00;5.50;;;;;;;;;;4948965;29;20205;-81
2023/06/10 12:38:30;;;;;;;6.50;5.90;;;;;;;;;;4950714;28;20765;-81
2023/06/10 12:41:05;;;;;;;6.43;5.70;;;;;;;;;;4951209;28;20653;-80
2023/06/10 12:43:33;;;;;;;8.38;5.85;;;;;;;;;;4950537;28;20202;-81
2023/06/10 12:46:10;;;;;;;6.68;6.07;;;;;;;;;;4950160;28;20610;-80
2023/06/10 12:48:37;;;;;;;6.10;5.60;;;;;;;;;;4947964;29;20229;-81
2023/06/10 12:51:05;;;;;;;6.22;5.72;;;;;;;;;;4951827;28;20792;-82
2023/06/10 12:53:32;;;;;;;7.75;6.38;;;;;;;;;;4950240;28;20227;-81
2023/06/10 12:56:02;;;;;;;7.05;6.35;;;;;;;;;;4951197;29;20298;-81
2023/06/10 12:58:30;;;;;;;6.45;5.85;;;;;;;;;;4951626;28;20238;-81
2023/06/10 13:00:59;;;;;;;6.43;5.82;;;;;;;;;;4953026;28;20665;-80
2023/06/10 13:03:26;;;;;;;6.60;6.00;;;;;;;;;;4948063;29;20196;-81
2023/06/10 13:05:53;;;;;;;7.40;6.70;;;;;;;;;;4933396;29;20700;-80
2023/06/10 13:08:20;;;;;;;6.90;6.30;;;;;;;;;;4939818;29;20298;-81
2023/06/10 13:10:48;;;;;;;6.93;6.22;;;;;;;;;;4952448;28;20235;-81
2023/06/10 13:13:16;;;;;;;6.95;6.25;;;;;;;;;;4950674;29;20203;-81
2023/06/10 13:15:45;;;;;;;8.05;6.57;;;;;;;;;;4952897;28;20356;-81
2023/06/10 13:18:12;;;;;;;6.78;6.18;;;;;;;;;;4955940;28;20598;-81
2023/06/10 13:20:39;;;;;;;7.43;6.82;;;;;;;;;;4964361;28;20679;-81
2023/06/10 13:23:06;;;;;;;7.57;6.97;;;;;;;;;;4957243;28;20654;-81
2023/06/10 13:25:33;;;;;;;7.78;7.10;;;;;;;;;;4955798;29;20222;-81
2023/06/10 13:28:01;;;;;;;7.00;6.35;;;;;;;;;;4955946;28;20285;-81
2023/06/10 13:30:28;;;;;;;7.13;6.43;;;;;;;;;;4956059;29;20321;-81
2023/06/10 13:32:57;;;;;;;6.97;6.28;;;;;;;;;;4956258;28;20305;-81
2023/06/10 13:35:24;;;;;;;8.05;6.72;;;;;;;;;;4955686;29;20203;-81
2023/06/10 13:37:51;;;;;;;6.97;6.32;;;;;;;;;;4955418;28;20203;-80
2023/06/10 13:40:19;;;;;;;5.75;5.25;;;;;;;;;;4955833;28;20203;-81
2023/06/10 13:42:50;;;;;;;7.28;6.40;;;;;;;;;;4955542;28;20226;-81
2023/06/10 13:45:18;;;;;;;6.90;6.30;;;;;;;;;;4955520;28;20191;-80
2023/06/10 13:47:45;;;;;;;6.97;6.38;;;;;;;;;;4955964;28;20282;-81
2023/06/10 13:50:14;;;;;;;6.20;5.70;;;;;;;;;;4954301;28;20237;-81
2023/06/10 13:52:41;;;;;;;6.15;5.63;;;;;;;;;;4952619;28;20926;-80
2023/06/10 13:55:08;;;;;;;8.15;7.25;;;;;;;;;;4952520;29;20211;-80
2023/06/10 13:57:36;;;;;;;7.43;6.80;;;;;;;;;;4952652;28;20308;-81
2023/06/10 14:00:03;;;;;;;6.50;6.00;;;;;;;;;;4954895;28;20649;-81
2023/06/10 14:02:30;;;;;;;7.13;6.53;;;;;;;;;;4955143;29;20853;-80
2023/06/10 14:04:57;;;;;;;6.65;6.05;;;;;;;;;;4953390;28;20233;-80
2023/06/10 14:07:27;;;;;;;5.68;5.18;;;;;;;;;;4958354;28;20203;-80
2023/06/10 14:09:54;;;;;;;5.72;5.32;;;;;;;;;;4951407;28;20313;-81
2023/06/10 14:12:21;;;;;;;8.20;6.30;;;;;;;;;;4950804;29;20290;-80
2023/06/10 14:14:49;;;;;;;6.82;6.13;;;;;;;;;;4950489;28;20206;-81
2023/06/10 14:17:16;;;;;;;6.38;5.88;;;;;;;;;;4954612;29;20251;-81
2023/06/10 14:19:43;;;;;;;6.88;6.28;;;;;;;;;;4953689;28;20286;-81
2023/06/10 14:22:10;;;;;;;7.47;6.78;;;;;;;;;;4954365;28;20231;-80
2023/06/10 14:24:39;;;;;;;6.93;6.30;;;;;;;;;;4954792;28;20230;-81
2023/06/10 14:27:07;;;;;;;6.68;6.05;;;;;;;;;;4937339;29;20657;-80
2023/06/10 14:29:35;;;;;;;7.03;6.43;;;;;;;;;;4935421;29;20243;-81